메인 페이지
METAR-TAF:

METAR-TAF

공항 :

토론토 피어슨 국제공항

토론토, 온타리오, 캐나다

위도: 43-40N, 경도: 079-38W, 고도: 173m

현재 날씨관측

예보는 57분 전, 04:00시(UTC)에 발표되었습니다.
11kt
온도 4°C
습도 60%
기압 1019 hPa
시정: 24.1km
고도 4000ft 상공 구름 조금

METAR: CYYZ 160400Z 27011KT 15SM FEW040 04/M03 A3009 RMK CF1 CF TR SLP193

시각: 00:57 (04:57 UTC)

예보

예보는 2 시간 18분 전, 02:39시(UTC)에 발표되었습니다.
예보 대상 시간: 16일 03시부터 17일 06시까지 (UTC)
18kt, 순간 최대 풍속 28kt
시정: 10km
고도 4000ft 상공 구름 조금
전환 중
16일 05시부터 16일 07시까지 (UTC)
10kt, 순간 최대 풍속 20kt
16일 1500시부터 (UTC)
서남서15kt, 순간 최대 풍속 25kt
시정: 10km
고도 3000ft 상공 구름 많음
전환 중
16일 16시부터 16일 18시까지 (UTC)
서남서20kt, 순간 최대 풍속 30kt
16일 2300시부터 (UTC)
서남서15kt, 순간 최대 풍속 25kt
시정: 10km
고도 3000ft 상공 구름 보통
고도 12000ft 상공 구름 많음
17일 0400시부터 (UTC)
서남서15kt
시정: 10km
고도 2500ft 상공 구름 많음

TAF: CYYZ 160239Z 1603/1706 28018G28KT P6SM FEW040 BECMG 1605/1607 26010G20KT FM161500 24015G25KT P6SM BKN030 BECMG 1616/1618 25020G30KT FM162300 24015G25KT P6SM SCT030 BKN120 FM170400 25015KT P6SM BKN025 RMK NXT FCST BY 160600Z

4,000개 이상의 공항 관측 자료 및 예보 (METAR 및 TAF 보고).

지도상에서 검색 가능한 기상관측소가 노란 점과 빨간 점으로 표시되어 있습니다.

기상관측소 명을 보려면 표시 위로 마우스를 이동하세요.

날씨 관측과 예보를 보려면 클릭하세요.

지도 변경 : 확대하려면 엑스 표시가 있는 녹색 버튼, 축소하려면 빼기 표시가 있는 녹색 버튼, 다음 페이지의 지도를 보려면 녹색 화살표를 클릭하세요.


METAR-TAF: